Time;durP1;ratioP1;P1;durP2;ratioP2;P2;SDS_P1;SDS_P2;PMS_P1;PMS_P2;Temp;Humidity;BMP_temperature;BMP_pressure;BME280_temperature;BME280_humidity;BME280_pressure;Samples;Min_cycle;Max_cycle;Signal;HPM_P1;HPM_P2
2022/09/21 00:02:14;;;;;;;6.40;6.10;;;;;;;-142.65;93.26;50174.75;5113623;28;20199;-71
2022/09/21 00:04:41;;;;;;;5.73;5.60;;;;;;;-142.65;93.29;50174.75;5113883;28;20583;-71
2022/09/21 00:07:07;;;;;;;7.37;6.70;;;;;;;-142.65;93.32;50170.78;5113656;28;20180;-71
2022/09/21 00:09:34;;;;;;;6.47;6.13;;;;;;;;;;5113741;28;20205;-71
2022/09/21 00:12:01;;;;;;;7.70;7.03;;;;;;;-142.65;93.28;50170.78;5113479;28;20218;-71
2022/09/21 00:14:27;;;;;;;7.83;7.47;;;;;;;-142.65;92.91;50174.75;5113770;28;20181;-71
2022/09/21 00:16:54;;;;;;;5.63;5.40;;;;;;;-142.65;92.96;50174.75;5095725;28;20190;-71
2022/09/21 00:19:20;;;;;;;11.37;7.70;;;;;;;;;;5113422;28;20265;-71
2022/09/21 00:21:47;;;;;;;8.00;7.30;;;;;;;-142.65;93.05;50164.81;5113745;28;20189;-71
2022/09/21 00:24:14;;;;;;;7.30;6.97;;;;;;;;;;5114262;28;20722;-71
2022/09/21 00:26:40;;;;;;;8.07;7.47;;;;;;;-142.65;93.20;50178.75;5114199;28;20191;-71
2022/09/21 00:29:07;;;;;;;8.53;7.60;;;;;;;-142.65;93.24;50172.78;5099337;28;20208;-70
2022/09/21 00:31:33;;;;;;;10.67;7.40;;;;;;;-142.65;93.24;50178.75;5117566;28;20209;-70
2022/09/21 00:34:02;;;;;;;8.73;7.93;;;;;;;-142.65;93.30;50174.75;5117366;28;20193;-70
2022/09/21 00:36:28;;;;;;;7.13;6.57;;;;;;;;;;5117585;28;20181;-70
2022/09/21 00:38:59;;;;;;;8.37;7.60;;;;;;;-142.65;93.54;50174.75;5117304;28;20708;-70
2022/09/21 00:41:28;;;;;;;6.90;6.50;;;;;;;-142.65;93.42;50176.75;5117524;28;20262;-70
2022/09/21 00:44:30;;;;;;;8.50;7.97;;;;;;;-142.65;93.37;50174.75;5117141;28;20674;-70
2022/09/21 00:47:03;;;;;;;7.00;6.60;;;;;;;-142.65;93.39;50170.78;5117498;28;20548;-70
2022/09/21 00:49:32;;;;;;;7.70;6.97;;;;;;;-142.65;93.32;50176.75;5117549;28;20227;-70
2022/09/21 00:52:03;;;;;;;5.80;5.60;;;;;;;-142.65;93.31;50174.75;5116935;28;20206;-70
2022/09/21 00:54:44;;;;;;;5.87;5.67;;;;;;;-142.65;93.39;50174.75;5117534;28;20269;-70
2022/09/21 00:57:11;;;;;;;7.77;6.83;;;;;;;-142.65;93.39;50174.75;5117176;28;20183;-70
2022/09/21 00:59:38;;;;;;;8.93;8.10;;;;;;;-142.65;93.43;50168.78;5098468;28;20214;-70
2022/09/21 01:02:05;;;;;;;7.73;7.27;;;;;;;-142.65;93.45;50170.78;5117062;28;20181;-70
2022/09/21 01:04:32;;;;;;;8.80;8.10;;;;;;;-142.65;93.47;50170.78;5116750;28;20196;-70
2022/09/21 01:07:03;;;;;;;12.97;8.30;;;;;;;-142.65;93.41;50180.75;5116708;28;20185;-70
2022/09/21 01:09:31;;;;;;;8.50;7.77;;;;;;;-142.65;93.53;50168.78;5099037;28;20568;-70
2022/09/21 01:12:14;;;;;;;8.47;7.67;;;;;;;-142.65;93.49;50170.78;5116464;28;20215;-70
2022/09/21 01:14:58;;;;;;;8.23;7.77;;;;;;;-142.65;93.59;50176.75;5116876;28;20184;-70
2022/09/21 01:17:49;;;;;;;8.90;8.10;;;;;;;-142.65;93.62;50174.75;5116560;28;20184;-70
2022/09/21 01:20:42;;;;;;;9.10;8.30;;;;;;;;;;5116470;28;20186;-70
2022/09/21 01:23:38;;;;;;;12.03;8.70;;;;;;;-142.65;93.56;50178.75;5077958;28;20216;-71
2022/09/21 01:26:20;;;;;;;10.67;8.07;;;;;;;-142.65;93.68;50170.78;5116668;28;20173;-71
2022/09/21 01:29:00;;;;;;;8.87;8.37;;;;;;;-142.65;93.72;50164.81;5116411;28;20754;-70
2022/09/21 01:31:56;;;;;;;10.07;9.10;;;;;;;-142.65;93.77;50174.75;5116193;28;20207;-70
2022/09/21 01:34:30;;;;;;;9.80;8.97;;;;;;;-142.65;93.83;50178.75;5105022;28;20203;-70
2022/09/21 01:37:04;;;;;;;10.47;9.13;;;;;;;-142.65;93.83;50178.75;5116677;28;20171;-70
2022/09/21 01:39:33;;;;;;;10.17;9.20;;;;;;;-142.65;93.87;50170.78;5114986;28;20227;-70
2022/09/21 01:42:04;;;;;;;10.20;9.37;;;;;;;-142.65;93.82;50176.75;5116017;28;20268;-70
2022/09/21 01:44:33;;;;;;;10.60;9.37;;;;;;;;;;5116875;28;20550;-70
2022/09/21 01:47:00;;;;;;;8.73;8.23;;;;;;;;;;5116207;28;20178;-70
2022/09/21 01:49:34;;;;;;;11.97;8.20;;;;;;;-142.65;93.94;50174.75;5115834;28;20206;-70
2022/09/21 01:52:06;;;;;;;9.97;9.17;;;;;;;-142.65;93.93;50176.75;5116178;28;20236;-70
2022/09/21 01:54:39;;;;;;;10.00;9.30;;;;;;;-142.65;93.97;50172.78;5116298;28;20653;-70
2022/09/21 01:57:55;;;;;;;9.80;9.00;;;;;;;-142.65;93.99;50180.75;5116575;28;20521;-70
2022/09/21 02:00:23;;;;;;;11.33;10.37;;;;;;;-142.65;94.01;50168.78;5026185;28;20211;-70
2022/09/21 02:02:58;;;;;;;10.87;9.73;;;;;;;-142.65;94.05;50180.75;5116028;28;20161;-70
2022/09/21 02:05:29;;;;;;;9.60;8.90;;;;;;;-142.65;93.94;50174.75;5116118;28;20239;-70
2022/09/21 02:07:56;;;;;;;17.57;8.37;;;;;;;-142.65;93.87;50178.75;5115556;28;20183;-70
2022/09/21 02:10:31;;;;;;;8.10;7.70;;;;;;;-142.65;93.84;50168.78;5116006;28;20181;-70
2022/09/21 02:13:01;;;;;;;9.73;8.73;;;;;;;-142.65;93.80;50178.75;5115899;28;20187;-70
2022/09/21 02:15:41;;;;;;;9.03;8.43;;;;;;;-142.65;93.77;50170.78;5116148;28;20184;-70
2022/09/21 02:18:20;;;;;;;9.30;8.53;;;;;;;-142.65;93.67;50174.75;5115807;28;20573;-70
2022/09/21 02:20:55;;;;;;;9.57;8.83;;;;;;;-142.65;93.64;50174.75;5116291;28;20162;-70
2022/09/21 02:23:24;;;;;;;9.10;8.40;;;;;;;-142.65;93.62;50180.75;5115741;28;20179;-70
2022/09/21 02:25:58;;;;;;;9.37;8.53;;;;;;;-142.65;93.59;50176.75;5115226;28;20181;-70
2022/09/21 02:28:42;;;;;;;8.73;8.03;;;;;;;-142.65;93.64;50174.75;5115513;28;20217;-70
2022/09/21 02:31:23;;;;;;;9.10;8.30;;;;;;;-142.65;93.56;50168.78;5115896;28;20197;-70
2022/09/21 02:33:58;;;;;;;9.40;8.47;;;;;;;-142.65;93.51;50170.78;5115482;28;20725;-70
2022/09/21 02:36:34;;;;;;;8.13;7.43;;;;;;;-142.65;93.59;50172.78;5115681;28;20241;-70
2022/09/21 02:39:09;;;;;;;9.07;8.20;;;;;;;-142.65;93.73;50174.75;5115368;28;20578;-70
2022/09/21 02:41:48;;;;;;;8.70;8.07;;;;;;;-142.65;93.88;50170.78;5115160;28;20676;-70
2022/09/21 02:44:18;;;;;;;8.07;7.57;;;;;;;;;;5114837;28;20642;-70
2022/09/21 02:46:58;;;;;;;9.13;8.27;;;;;;;-142.65;93.88;50118.97;5115125;28;20176;-70
2022/09/21 02:49:30;;;;;;;7.93;7.47;;;;;;;;;;5114885;28;20209;-70
2022/09/21 02:52:04;;;;;;;9.10;8.20;;;;;;;-142.65;93.84;50170.78;5115353;28;20197;-70
2022/09/21 02:54:32;;;;;;;8.33;7.67;;;;;;;-142.65;93.94;50164.81;5114943;28;20624;-70
2022/09/21 02:57:01;;;;;;;11.13;7.63;;;;;;;-142.65;93.82;50172.78;5114831;28;20652;-70
2022/09/21 02:59:27;;;;;;;8.27;7.70;;;;;;;-142.65;93.87;50180.75;5114445;28;20297;-70
2022/09/21 03:01:57;;;;;;;7.70;7.20;;;;;;;-142.65;93.94;50170.78;5115037;28;20181;-70
2022/09/21 03:04:23;;;;;;;7.80;7.30;;;;;;;-142.65;94.31;50174.75;5114453;28;20185;-70
2022/09/21 03:06:50;;;;;;;7.53;7.10;;;;;;;-142.65;94.15;50174.75;5114938;28;20207;-70
2022/09/21 03:09:17;;;;;;;10.07;7.77;;;;;;;;;;5114277;28;20690;-70
2022/09/21 03:11:43;;;;;;;7.97;7.47;;;;;;;-142.65;94.21;50170.78;5114259;28;20216;-70
2022/09/21 03:14:10;;;;;;;7.77;7.37;;;;;;;-142.65;94.24;50174.75;5114278;28;20579;-70
2022/09/21 03:16:37;;;;;;;8.10;7.40;;;;;;;-142.65;94.34;50168.78;5114526;28;20180;-70
2022/09/21 03:19:04;;;;;;;7.40;7.03;;;;;;;-142.65;94.22;50168.78;5114141;28;20211;-70
2022/09/21 03:21:30;;;;;;;7.93;7.20;;;;;;;-142.65;94.42;50174.75;5114400;28;20189;-70
2022/09/21 03:23:57;;;;;;;8.37;7.67;;;;;;;-142.65;94.43;50178.75;5114099;28;20185;-70
2022/09/21 03:26:23;;;;;;;8.23;7.63;;;;;;;-142.65;94.59;50174.75;5114328;28;20188;-70
2022/09/21 03:28:52;;;;;;;12.00;9.80;;;;;;;-142.65;94.51;50170.78;5113985;28;20201;-70
2022/09/21 03:31:19;;;;;;;17.00;13.47;;;;;;;-142.65;94.69;50170.78;5114188;28;20227;-70
2022/09/21 03:33:45;;;;;;;12.00;10.87;;;;;;;-142.65;94.79;50180.75;5113929;28;20189;-70
2022/09/21 03:36:12;;;;;;;13.37;9.73;;;;;;;-142.65;94.92;50168.78;5113938;28;20274;-70
2022/09/21 03:38:38;;;;;;;9.27;8.43;;;;;;;;;;5113975;28;20218;-70
2022/09/21 03:41:05;;;;;;;8.57;7.90;;;;;;;-142.65;94.79;50170.78;5114351;28;20190;-70
2022/09/21 03:43:31;;;;;;;10.27;9.60;;;;;;;-142.65;94.79;50174.75;5114364;28;20542;-70
2022/09/21 03:45:58;;;;;;;10.50;9.53;;;;;;;;;;5113860;28;20541;-70
2022/09/21 03:48:24;;;;;;;9.13;8.27;;;;;;;-142.65;94.86;50174.75;5114244;28;20201;-70
2022/09/21 03:50:51;;;;;;;8.93;8.23;;;;;;;-142.65;94.82;50170.78;5114018;28;20685;-71
2022/09/21 03:53:17;;;;;;;7.13;6.63;;;;;;;-142.65;94.87;50178.75;5113684;28;20204;-70
2022/09/21 03:55:44;;;;;;;8.27;7.53;;;;;;;-142.65;94.77;50182.72;5114006;28;20188;-70
2022/09/21 03:58:10;;;;;;;7.70;7.30;;;;;;;-142.65;94.88;50164.81;5113839;28;20206;-70
2022/09/21 04:00:38;;;;;;;9.37;7.73;;;;;;;-142.65;94.81;50174.75;5114184;28;20199;-70
2022/09/21 04:03:04;;;;;;;8.93;8.20;;;;;;;-142.65;94.81;50182.72;5116419;28;20561;-70
2022/09/21 04:05:30;;;;;;;13.90;10.67;;;;;;;-142.65;94.83;50178.75;5118199;28;20279;-70
2022/09/21 04:07:57;;;;;;;12.77;11.47;;;;;;;-142.65;94.89;50170.78;5118406;28;20181;-70
2022/09/21 04:10:31;;;;;;;12.33;11.10;;;;;;;-142.65;94.91;50178.75;5117818;28;20181;-70
2022/09/21 04:13:03;;;;;;;12.07;11.13;;;;;;;-142.65;95.02;50174.75;5117720;28;20678;-70
2022/09/21 04:15:30;;;;;;;12.93;10.27;;;;;;;-142.65;94.81;50172.78;5118120;28;20546;-71
2022/09/21 04:17:56;;;;;;;9.00;8.37;;;;;;;-142.65;94.79;50180.75;5118219;28;20203;-71
2022/09/21 04:20:23;;;;;;;10.93;9.70;;;;;;;-142.65;94.82;50178.75;5117763;28;20695;-71
2022/09/21 04:22:51;;;;;;;12.37;10.77;;;;;;;-142.65;94.75;50172.78;5118267;28;20177;-71
2022/09/21 04:25:18;;;;;;;12.13;9.57;;;;;;;-142.65;94.73;50172.78;5118328;28;20276;-71
2022/09/21 04:27:44;;;;;;;9.70;8.67;;;;;;;;;;5117926;28;20192;-70
2022/09/21 04:30:12;;;;;;;8.90;8.40;;;;;;;-142.65;94.74;50168.78;5118035;28;20179;-70
2022/09/21 04:32:39;;;;;;;9.13;8.53;;;;;;;-142.65;94.69;50170.78;5117851;28;20207;-70
2022/09/21 04:35:06;;;;;;;11.53;9.20;;;;;;;-142.65;94.65;50178.75;5117256;28;20191;-70
2022/09/21 04:37:32;;;;;;;9.17;8.37;;;;;;;-142.65;94.47;50170.78;5117236;28;20189;-70
2022/09/21 04:39:59;;;;;;;10.57;9.50;;;;;;;-142.65;94.52;50178.75;5117152;28;20204;-72
2022/09/21 04:42:26;;;;;;;9.00;8.50;;;;;;;-142.65;94.49;50178.75;5117479;28;20192;-71
2022/09/21 04:44:52;;;;;;;9.93;8.23;;;;;;;-142.65;94.47;50178.75;5098821;28;20655;-71
2022/09/21 04:47:22;;;;;;;9.60;8.70;;;;;;;-142.65;94.34;50180.75;5117076;28;20185;-71
2022/09/21 04:49:48;;;;;;;8.90;7.87;;;;;;;;;;5116936;28;20256;-71
2022/09/21 04:52:14;;;;;;;8.57;7.87;;;;;;;-142.65;94.28;50180.75;5116865;28;20224;-71
2022/09/21 04:54:45;;;;;;;9.07;8.37;;;;;;;-142.65;94.32;50170.78;5116905;28;20225;-71
2022/09/21 04:57:12;;;;;;;19.73;8.40;;;;;;;-142.65;94.22;50170.78;5117049;28;20703;-71
2022/09/21 04:59:38;;;;;;;21.23;8.70;;;;;;;-142.65;94.24;50174.75;5116766;28;20205;-71
2022/09/21 05:02:05;;;;;;;7.97;7.37;;;;;;;-142.65;94.33;50178.75;5116813;28;20181;-72
2022/09/21 05:04:31;;;;;;;9.63;7.97;;;;;;;-142.65;94.30;50172.78;5116941;28;20177;-71
2022/09/21 05:06:58;;;;;;;8.73;8.33;;;;;;;-142.65;94.33;50176.75;5116696;28;20185;-71
2022/09/21 05:12:09;;;;;;;9.83;8.10;;;;;;;-142.65;94.22;50164.81;5116634;28;20209;-71
2022/09/21 05:14:36;;;;;;;9.80;9.10;;;;;;;-142.65;94.26;50178.75;5116548;28;20260;-71
2022/09/21 05:17:02;;;;;;;9.00;8.47;;;;;;;-142.65;94.29;50178.75;5116411;28;20189;-71
2022/09/21 05:19:29;;;;;;;12.83;9.10;;;;;;;-142.65;94.31;50164.81;5117228;28;20205;-71
2022/09/21 05:21:55;;;;;;;8.77;8.20;;;;;;;-142.65;94.32;50172.78;5116332;28;20187;-71
2022/09/21 05:24:21;;;;;;;8.17;7.67;;;;;;;-142.65;94.23;50170.78;5116872;28;20263;-71
2022/09/21 05:26:48;;;;;;;9.73;8.93;;;;;;;-142.65;94.24;50176.75;5116245;28;20185;-71
2022/09/21 05:29:14;;;;;;;8.87;8.07;;;;;;;-142.65;94.41;50174.75;5116390;28;20209;-70
2022/09/21 05:32:00;;;;;;;9.57;8.73;;;;;;;-142.65;94.48;50178.75;5116662;28;20196;-70
2022/09/21 05:34:52;;;;;;;11.93;8.90;;;;;;;-142.65;94.59;50178.75;5116746;28;20165;-71
2022/09/21 05:37:34;;;;;;;10.27;7.90;;;;;;;-142.65;94.61;50170.78;5116424;28;20170;-71
2022/09/21 05:40:00;;;;;;;9.40;8.30;;;;;;;-142.65;94.56;50176.75;5097967;28;20573;-70
2022/09/21 05:42:27;;;;;;;9.43;8.73;;;;;;;-142.65;94.70;50170.78;5116549;28;20639;-70
2022/09/21 05:44:54;;;;;;;8.97;8.17;;;;;;;-142.65;94.63;50176.75;5116004;28;20177;-70
2022/09/21 05:47:39;;;;;;;10.90;9.90;;;;;;;-142.65;94.73;50172.78;5115963;28;20250;-70
2022/09/21 05:50:26;;;;;;;12.13;8.07;;;;;;;-142.65;94.47;50174.75;5116134;28;20540;-70
2022/09/21 05:53:07;;;;;;;13.70;8.90;;;;;;;-142.65;94.58;50178.75;5115729;28;20203;-70
2022/09/21 05:55:40;;;;;;;10.53;9.50;;;;;;;-142.65;94.62;50174.75;5116345;28;20616;-70
2022/09/21 05:58:24;;;;;;;11.17;9.93;;;;;;;-142.65;94.69;50170.78;5115946;28;20209;-70
2022/09/21 06:01:02;;;;;;;14.90;10.07;;;;;;;;;;5115980;28;20177;-70
2022/09/21 06:03:31;;;;;;;11.43;10.30;;;;;;;-142.65;94.91;50170.78;5115953;28;20165;-70
2022/09/21 06:05:58;;;;;;;12.13;9.43;;;;;;;-142.65;94.92;50174.75;5115824;28;20207;-70
2022/09/21 06:08:24;;;;;;;10.53;9.40;;;;;;;;;;5115724;28;20201;-70
2022/09/21 06:10:51;;;;;;;14.27;10.83;;;;;;;-142.65;94.80;50178.75;5115380;28;20590;-70
2022/09/21 06:13:18;;;;;;;12.30;10.37;;;;;;;-142.65;95.01;50174.75;5115710;28;20627;-70
2022/09/21 06:15:44;;;;;;;14.23;10.43;;;;;;;-142.65;94.83;50174.75;5115303;28;20220;-70
2022/09/21 06:18:11;;;;;;;15.90;10.67;;;;;;;-142.65;94.98;50178.75;5115509;28;20652;-70
2022/09/21 06:20:43;;;;;;;12.83;10.00;;;;;;;;;;5115770;28;20615;-70
2022/09/21 06:23:11;;;;;;;14.57;10.47;;;;;;;-142.65;95.09;50174.75;5115251;28;20204;-70
2022/09/21 06:25:37;;;;;;;11.37;9.67;;;;;;;-142.65;95.16;50176.75;5114433;28;20181;-70
2022/09/21 06:28:04;;;;;;;12.70;9.50;;;;;;;;;;5115048;28;20578;-70
2022/09/21 06:30:34;;;;;;;14.60;10.70;;;;;;;-142.65;95.32;50174.75;5115420;28;20181;-70
2022/09/21 06:33:03;;;;;;;14.00;10.33;;;;;;;-142.65;95.46;50164.81;5115615;28;20219;-70
2022/09/21 06:35:31;;;;;;;26.37;10.57;;;;;;;-142.65;95.41;50174.75;5114944;28;20177;-70
2022/09/21 06:38:05;;;;;;;22.00;9.93;;;;;;;-142.65;95.57;50178.75;5114916;28;20268;-70
2022/09/21 06:40:34;;;;;;;17.90;8.97;;;;;;;-142.65;95.65;50162.81;5115191;28;20172;-70
2022/09/21 06:43:01;;;;;;;16.87;10.50;;;;;;;;;;5114837;28;20177;-71
2022/09/21 06:45:29;;;;;;;17.80;10.43;;;;;;;-142.65;95.96;50170.78;5114744;28;20189;-71
2022/09/21 06:47:56;;;;;;;23.90;9.80;;;;;;;-142.65;96.08;50174.75;5115224;28;20268;-70
2022/09/21 06:50:23;;;;;;;15.30;9.87;;;;;;;-142.65;96.07;50174.75;5114719;28;20658;-71
2022/09/21 06:52:50;;;;;;;30.43;10.80;;;;;;;-142.65;96.05;50162.81;5114872;28;20291;-71
2022/09/21 06:55:16;;;;;;;10.90;10.00;;;;;;;;;;5114857;28;20187;-71
2022/09/21 06:57:43;;;;;;;11.27;10.27;;;;;;;-142.65;96.05;50176.75;5114482;28;20189;-70
2022/09/21 07:00:12;;;;;;;15.40;9.83;;;;;;;-142.65;95.99;50174.75;5114766;28;20182;-70
2022/09/21 07:02:43;;;;;;;11.63;10.43;;;;;;;-142.65;96.08;50180.75;5114776;28;20260;-71
2022/09/21 07:05:10;;;;;;;11.17;9.93;;;;;;;-142.65;96.10;50178.75;5114751;28;20637;-71
2022/09/21 07:07:36;;;;;;;11.43;10.60;;;;;;;-142.65;96.22;50178.75;5114557;28;20195;-71
2022/09/21 07:10:03;;;;;;;20.03;13.77;;;;;;;;;;5114247;28;20204;-70
2022/09/21 07:12:33;;;;;;;19.00;13.67;;;;;;;-142.65;96.49;50168.78;5114037;28;20588;-70
2022/09/21 07:15:04;;;;;;;19.20;13.60;;;;;;;-142.65;96.43;50168.78;5114260;28;20192;-70
2022/09/21 07:17:32;;;;;;;20.57;12.67;;;;;;;-142.65;96.51;50170.78;5113529;28;20226;-70
2022/09/21 07:20:00;;;;;;;22.27;14.23;;;;;;;-142.65;96.44;50180.75;5114398;28;20208;-70
2022/09/21 07:22:28;;;;;;;17.30;12.77;;;;;;;-142.65;96.42;50174.75;5114154;28;20643;-70
2022/09/21 07:24:54;;;;;;;17.20;13.40;;;;;;;;;;5113879;28;20694;-70
2022/09/21 07:27:21;;;;;;;28.23;12.77;;;;;;;-142.65;96.19;50170.78;5113647;28;20185;-70
2022/09/21 07:29:47;;;;;;;15.03;12.53;;;;;;;-142.65;96.23;50174.75;5113848;28;20205;-70
2022/09/21 07:32:13;;;;;;;14.23;12.73;;;;;;;-142.65;96.19;50170.78;5114170;28;20188;-70
2022/09/21 07:34:40;;;;;;;16.67;12.77;;;;;;;-142.65;96.18;50170.78;5114224;28;20195;-70
2022/09/21 07:37:06;;;;;;;19.37;13.23;;;;;;;-142.65;96.03;50168.78;5114286;28;20173;-71
2022/09/21 07:39:32;;;;;;;20.87;13.03;;;;;;;;;;5114142;28;20209;-71
2022/09/21 07:41:59;;;;;;;20.73;12.87;;;;;;;-142.65;95.82;50168.78;5113856;28;20185;-71
2022/09/21 07:44:25;;;;;;;13.83;12.27;;;;;;;-142.65;95.66;50176.75;5113846;28;20277;-71
2022/09/21 07:46:52;;;;;;;16.93;12.90;;;;;;;-142.65;95.48;50174.75;5114061;28;20651;-71
2022/09/21 07:49:18;;;;;;;13.33;12.03;;;;;;;-142.65;95.20;50168.78;5113831;28;20223;-70
2022/09/21 07:51:44;;;;;;;15.43;11.23;;;;;;;-142.65;95.06;50170.78;5113804;28;20234;-70
2022/09/21 07:54:12;;;;;;;15.80;13.33;;;;;;;-142.65;94.85;50172.78;5113678;28;20215;-70
2022/09/21 07:56:38;;;;;;;12.70;11.60;;;;;;;;;;5113709;28;20189;-70
2022/09/21 07:59:04;;;;;;;12.87;11.60;;;;;;;-142.65;94.53;50168.78;5113826;28;20215;-70
2022/09/21 08:01:39;;;;;;;11.53;10.67;;;;;;;-142.65;94.25;50172.78;5113630;28;20183;-70
2022/09/21 08:04:08;;;;;;;13.73;10.37;;;;;;;-142.65;93.80;50164.81;5095626;28;20195;-70
2022/09/21 08:06:38;;;;;;;15.73;10.67;;;;;;;-142.65;93.56;50170.78;5114093;28;20193;-70
2022/09/21 08:09:05;;;;;;;18.10;9.80;;;;;;;-142.65;91.40;50164.81;5113491;28;20594;-70
2022/09/21 08:11:32;;;;;;;10.43;9.43;;;;;;;-142.65;91.01;50168.78;5113690;28;20573;-70
2022/09/21 08:14:01;;;;;;;11.67;10.40;;;;;;;-142.65;90.34;50164.81;5113731;28;20208;-70
2022/09/21 08:16:27;;;;;;;13.43;10.80;;;;;;;;;;5113556;28;20550;-70
2022/09/21 08:18:54;;;;;;;15.10;11.30;;;;;;;-142.65;88.94;50162.81;5113386;28;20205;-70
2022/09/21 08:21:21;;;;;;;12.47;10.90;;;;;;;-142.65;88.26;50164.81;5113447;28;20196;-70
2022/09/21 08:23:48;;;;;;;25.00;12.10;;;;;;;;;;5113638;28;20189;-70
2022/09/21 08:26:17;;;;;;;11.33;9.30;;;;;;;;;;5113662;28;20196;-70
2022/09/21 08:28:48;;;;;;;11.57;10.37;;;;;;;-142.65;86.87;50164.81;5113318;28;20208;-70
2022/09/21 08:31:18;;;;;;;14.67;10.77;;;;;;;-142.65;86.58;50162.81;5113666;28;20532;-70
2022/09/21 08:33:45;;;;;;;12.77;10.07;;;;;;;-142.65;86.27;50170.78;5113510;28;20239;-70
2022/09/21 08:36:12;;;;;;;10.67;9.60;;;;;;;-142.65;84.50;50164.81;5113364;28;20181;-70
2022/09/21 08:38:38;;;;;;;10.73;9.93;;;;;;;-142.65;84.84;50174.75;5113137;28;20216;-70
2022/09/21 08:41:19;;;;;;;12.57;10.13;;;;;;;-142.65;84.11;50164.81;5113345;28;20178;-70
2022/09/21 08:43:52;;;;;;;15.60;9.57;;;;;;;;;;5113209;28;20174;-71
2022/09/21 08:46:25;;;;;;;15.40;9.77;;;;;;;-142.65;81.67;50164.81;5113065;28;20538;-71
2022/09/21 08:48:58;;;;;;;9.67;8.63;;;;;;;;;;5115601;28;20259;-71
2022/09/21 08:51:27;;;;;;;10.67;8.57;;;;;;;;;;5117585;28;20177;-71
2022/09/21 08:54:00;;;;;;;8.37;7.87;;;;;;;;;;5117276;28;20236;-71
2022/09/21 08:56:26;;;;;;;10.00;6.93;;;;;;;;;;5117782;28;20242;-71
2022/09/21 08:59:14;;;;;;;6.60;6.10;;;;;;;;;;5117173;28;20209;-71
2022/09/21 09:01:40;;;;;;;5.57;5.07;;;;;;;-142.65;77.54;50162.81;5118337;28;20189;-71
2022/09/21 09:04:38;;;;;;;4.33;4.03;;;;;;;-142.65;75.76;50170.78;5117492;28;20196;-71
2022/09/21 09:07:13;;;;;;;5.50;5.30;;;;;;;-142.65;75.35;50162.81;5117778;28;20196;-71
2022/09/21 09:09:48;;;;;;;5.63;5.33;;;;;;;-142.65;74.78;50170.78;5118089;28;20571;-71
2022/09/21 09:12:42;;;;;;;5.43;5.07;;;;;;;-142.65;74.49;50168.78;5117493;28;20196;-71
2022/09/21 09:15:14;;;;;;;4.57;4.23;;;;;;;-142.65;71.12;50164.81;5116584;28;20181;-71
2022/09/21 09:17:50;;;;;;;4.20;3.83;;;;;;;;;;5117005;28;20166;-70
2022/09/21 09:20:25;;;;;;;3.03;3.03;;;;;;;-142.65;71.25;50172.78;5116490;28;20185;-70
2022/09/21 09:23:00;;;;;;;12.83;3.77;;;;;;;-142.65;71.25;50162.81;5116646;28;20192;-70
2022/09/21 09:25:31;;;;;;;4.50;3.00;;;;;;;;;;5116467;28;20183;-70
2022/09/21 09:28:04;;;;;;;2.50;2.50;;;;;;;-142.65;69.13;50164.81;5116951;28;20197;-70
2022/09/21 09:30:33;;;;;;;5.57;2.80;;;;;;;-142.65;68.31;50160.81;5116660;28;20180;-70
2022/09/21 09:33:07;;;;;;;3.00;2.90;;;;;;;;;;5116423;28;20216;-70
2022/09/21 09:35:50;;;;;;;2.57;2.37;;;;;;;-142.65;68.78;50162.81;5116651;28;20185;-70
2022/09/21 09:38:29;;;;;;;2.07;2.07;;;;;;;-142.65;68.80;50164.81;5116267;28;20205;-70
2022/09/21 09:41:27;;;;;;;3.97;3.77;;;;;;;-142.65;68.43;50162.81;5116377;28;20191;-71
2022/09/21 09:44:00;;;;;;;6.00;5.43;;;;;;;-142.65;66.65;50164.81;5116449;28;20170;-71
2022/09/21 09:46:36;;;;;;;4.10;2.73;;;;;;;-142.65;64.67;50170.78;5116252;28;20565;-71
2022/09/21 09:49:27;;;;;;;2.77;2.57;;;;;;;-142.65;63.94;50117.00;5115918;28;20217;-71
2022/09/21 09:51:54;;;;;;;2.77;2.67;;;;;;;-142.65;65.05;50162.81;5116437;28;20181;-71
2022/09/21 09:54:25;;;;;;;2.17;2.07;;;;;;;-142.65;65.62;50162.81;5115781;28;20686;-71
2022/09/21 09:56:52;;;;;;;2.77;2.27;;;;;;;;;;5116148;28;20616;-71
2022/09/21 09:59:25;;;;;;;1.80;1.70;;;;;;;;;;5114954;28;20581;-71
2022/09/21 10:02:01;;;;;;;2.63;2.53;;;;;;;-142.65;65.04;50162.81;5115919;28;20173;-71
2022/09/21 10:04:27;;;;;;;1.90;1.90;;;;;;;;;;5116219;28;20165;-71
2022/09/21 10:06:54;;;;;;;2.23;2.03;;;;;;;-142.65;65.19;50164.81;5116119;28;20181;-71
2022/09/21 10:09:30;;;;;;;1.97;1.97;;;;;;;;;;5115470;28;20217;-71
2022/09/21 10:12:00;;;;;;;1.73;1.60;;;;;;;-142.65;65.44;50162.81;5115338;28;20193;-71
2022/09/21 10:14:33;;;;;;;4.13;2.13;;;;;;;-142.65;65.41;50168.78;5115943;28;20203;-71
2022/09/21 10:17:06;;;;;;;2.13;2.03;;;;;;;-142.65;63.40;50162.81;5115711;28;20195;-71
2022/09/21 10:19:33;;;;;;;2.30;2.10;;;;;;;-142.65;64.18;50176.75;5115554;28;20205;-71
2022/09/21 10:22:03;;;;;;;1.83;1.83;;;;;;;-142.65;63.03;50162.81;5115290;28;20188;-71
2022/09/21 10:24:29;;;;;;;2.17;1.90;;;;;;;;;;5115826;28;20162;-71
2022/09/21 10:27:03;;;;;;;1.87;1.87;;;;;;;-142.65;63.62;50174.75;5115178;28;20193;-72
2022/09/21 10:29:38;;;;;;;2.80;1.80;;;;;;;-142.65;63.57;50162.81;5115682;28;20215;-71
2022/09/21 10:32:25;;;;;;;1.70;1.70;;;;;;;-142.65;63.21;50162.81;5115399;28;20185;-71
2022/09/21 10:34:59;;;;;;;1.50;1.40;;;;;;;-142.65;63.35;50164.81;5115231;28;20552;-71
2022/09/21 10:37:29;;;;;;;4.03;1.70;;;;;;;;;;5115087;28;20189;-71
2022/09/21 10:39:56;;;;;;;1.33;1.33;;;;;;;-142.65;64.43;50164.81;5115136;28;20578;-71
2022/09/21 10:42:22;;;;;;;3.83;1.80;;;;;;;-142.65;63.43;50162.81;5114839;28;20272;-71
2022/09/21 10:44:52;;;;;;;2.20;1.60;;;;;;;-142.65;63.49;50164.81;5115195;28;20557;-71
2022/09/21 10:47:34;;;;;;;1.60;1.57;;;;;;;-142.65;62.82;50162.81;5114876;28;20191;-71
2022/09/21 10:50:04;;;;;;;2.50;1.50;;;;;;;-142.65;61.84;50164.81;5114724;28;20209;-71
2022/09/21 10:52:35;;;;;;;3.47;2.17;;;;;;;-142.65;59.17;50162.81;5115107;28;20174;-71
2022/09/21 10:55:01;;;;;;;2.43;2.33;;;;;;;;;;5115154;28;20201;-71
2022/09/21 10:57:29;;;;;;;2.33;2.23;;;;;;;-142.65;60.65;50170.78;5114621;28;20187;-71
2022/09/21 10:59:56;;;;;;;2.43;2.23;;;;;;;-142.65;58.16;50164.81;5114490;28;20211;-71
2022/09/21 11:02:24;;;;;;;1.97;1.97;;;;;;;;;;5114854;28;20666;-71
2022/09/21 11:04:59;;;;;;;1.80;1.80;;;;;;;-142.65;58.92;50162.81;5114488;28;20177;-71
2022/09/21 11:07:49;;;;;;;1.37;1.37;;;;;;;-142.65;56.93;50162.81;5114675;28;20177;-71
2022/09/21 11:10:15;;;;;;;2.53;1.93;;;;;;;;;;5115244;28;20524;-71
2022/09/21 11:12:52;;;;;;;1.90;1.80;;;;;;;-142.65;59.43;50164.81;5113978;28;20659;-71
2022/09/21 11:15:32;;;;;;;1.90;1.90;;;;;;;-142.65;58.17;50162.81;5114967;28;20531;-72
2022/09/21 11:18:20;;;;;;;1.90;1.80;;;;;;;-142.65;58.25;50162.81;5114489;28;20259;-71
2022/09/21 11:20:57;;;;;;;2.63;1.40;;;;;;;-142.65;54.65;50162.81;5114544;28;20177;-71
2022/09/21 11:23:23;;;;;;;4.70;1.77;;;;;;;;;;5114696;28;20181;-71
2022/09/21 11:26:11;;;;;;;2.30;1.53;;;;;;;-142.65;58.47;50162.81;5114677;28;20181;-71
2022/09/21 11:28:57;;;;;;;5.93;1.80;;;;;;;-142.65;59.31;50162.81;5114231;28;20220;-71
2022/09/21 11:31:31;;;;;;;2.70;2.60;;;;;;;;;;5114258;28;20196;-71
2022/09/21 11:34:16;;;;;;;1.70;1.70;;;;;;;-142.65;56.98;50162.81;5114251;28;20216;-71
2022/09/21 11:36:50;;;;;;;1.43;1.43;;;;;;;;;;5114043;28;20177;-71
2022/09/21 11:39:27;;;;;;;1.87;1.77;;;;;;;;;;5114182;28;20204;-71
2022/09/21 11:42:28;;;;;;;1.93;1.93;;;;;;;-142.65;58.95;50162.81;5114368;28;20181;-71
2022/09/21 11:45:00;;;;;;;6.63;1.70;;;;;;;-142.65;58.12;50162.81;5114422;28;20168;-71
2022/09/21 11:47:53;;;;;;;2.13;2.03;;;;;;;-142.65;58.92;50164.81;5114133;28;20169;-71
2022/09/21 11:50:32;;;;;;;1.93;1.93;;;;;;;-142.65;56.77;50162.81;5114105;28;20176;-71
2022/09/21 11:53:19;;;;;;;3.50;1.90;;;;;;;-142.65;57.87;50162.81;5114059;28;20185;-72
2022/09/21 11:56:15;;;;;;;2.20;2.00;;;;;;;-142.65;58.22;50164.81;5113701;28;20188;-71
2022/09/21 11:58:44;;;;;;;1.67;1.67;;;;;;;-142.65;57.72;50164.81;5113854;28;20205;-71
2022/09/21 12:01:42;;;;;;;1.40;1.40;;;;;;;-142.65;57.19;50164.81;5113736;28;20550;-71
2022/09/21 12:04:20;;;;;;;1.90;1.90;;;;;;;-142.65;56.77;50162.81;5113969;28;20165;-71
2022/09/21 12:07:14;;;;;;;1.73;1.63;;;;;;;-142.65;57.60;50164.81;5113896;28;20177;-71